Time;durP1;ratioP1;P1;durP2;ratioP2;P2;SDS_P1;SDS_P2;PMS_P1;PMS_P2;Temp;Humidity;BMP_temperature;BMP_pressure;BME280_temperature;BME280_humidity;BME280_pressure;Samples;Min_cycle;Max_cycle;Signal;HPM_P1;HPM_P2
2023/08/08 00:04:01;;;;;;;2.42;1.10;;;;;;;14.94;57.65;100344.03;21042371;28;20275;-80
2023/08/08 00:14:03;;;;;;;2.50;1.00;;;;;;;14.84;57.43;100336.84;21044307;28;20271;-79
2023/08/08 00:24:06;;;;;;;5.17;0.90;;;;;;;14.91;56.11;100331.41;21094494;28;20193;-81
2023/08/08 00:34:08;;;;;;;3.05;0.95;;;;;;;14.70;57.46;100330.72;21072118;28;20686;-78
2023/08/08 00:44:11;;;;;;;1.67;0.70;;;;;;;14.60;56.35;100328.38;21028005;28;20218;-78
2023/08/08 00:54:14;;;;;;;5.30;0.93;;;;;;;15.02;56.63;100307.06;21036534;28;20279;-79
2023/08/08 01:04:18;;;;;;;3.30;0.90;;;;;;;15.06;54.75;100315.69;21075054;28;20211;-80
2023/08/08 01:14:21;;;;;;;2.63;1.00;;;;;;;14.85;56.34;100317.81;21019714;28;20218;-79
2023/08/08 01:24:29;;;;;;;1.13;0.83;;;;;;;14.88;55.45;100311.44;21052871;28;20187;-81
2023/08/08 01:34:33;;;;;;;1.37;1.17;;;;;;;13.98;57.13;100323.91;21060299;28;20279;-79
2023/08/08 01:44:36;;;;;;;0.93;0.63;;;;;;;14.16;56.73;100316.03;21043671;28;20245;-79
2023/08/08 01:54:38;;;;;;;2.97;0.75;;;;;;;14.34;55.95;100298.44;21047059;28;20205;-80
2023/08/08 02:04:41;;;;;;;2.13;1.00;;;;;;;14.28;55.47;100297.06;21035913;28;20214;-79
2023/08/08 02:14:43;;;;;;;2.50;1.08;;;;;;;14.39;55.49;100284.06;21077343;28;20282;-79
2023/08/08 02:24:46;;;;;;;2.55;1.02;;;;;;;14.34;55.56;100278.63;21044622;28;20190;-79
2023/08/08 02:34:49;;;;;;;2.50;1.10;;;;;;;14.26;56.21;100279.59;21040658;28;20549;-78
2023/08/08 02:44:51;;;;;;;4.00;1.20;;;;;;;14.10;57.61;100275.81;21067905;28;20287;-79
2023/08/08 02:54:54;;;;;;;1.37;0.97;;;;;;;14.59;55.18;100265.25;21049696;28;20275;-78
2023/08/08 03:04:57;;;;;;;1.67;1.00;;;;;;;14.49;55.23;100259.28;21041202;28;20214;-79
2023/08/08 03:15:02;;;;;;;3.33;1.50;;;;;;;14.79;55.32;100240.78;21034436;28;20218;-78
2023/08/08 03:25:05;;;;;;;3.47;1.30;;;;;;;14.19;57.71;100239.72;21045611;28;20194;-79
2023/08/08 03:35:09;;;;;;;4.18;1.63;;;;;;;13.58;60.60;100225.59;21011683;28;20280;-79
2023/08/08 03:45:14;;;;;;;3.35;1.20;;;;;;;14.39;58.60;100258.59;21033637;28;20252;-80
2023/08/08 03:55:17;;;;;;;6.18;1.63;;;;;;;14.43;58.28;100255.84;21069685;28;20557;-79
2023/08/08 04:05:20;;;;;;;5.63;1.80;;;;;;;14.13;62.29;100232.66;21034445;28;20275;-79
2023/08/08 04:15:23;;;;;;;5.60;1.97;;;;;;;13.58;65.37;100230.41;21045757;28;20503;-80
2023/08/08 04:25:26;;;;;;;5.10;2.20;;;;;;;13.87;65.35;100254.81;21040554;28;20252;-79
2023/08/08 04:35:29;;;;;;;2.43;2.10;;;;;;;13.87;66.08;100249.16;21026952;28;20223;-78
2023/08/08 04:45:31;;;;;;;5.80;2.80;;;;;;;13.62;66.98;100239.84;21029460;28;20227;-80
2023/08/08 04:55:34;;;;;;;8.63;3.17;;;;;;;13.59;67.00;100232.06;21041583;28;20344;-79
2023/08/08 05:05:37;;;;;;;6.50;3.73;;;;;;;13.92;66.38;100229.13;21043969;28;20223;-81
2023/08/08 05:15:39;;;;;;;4.53;3.43;;;;;;;13.63;66.03;100231.03;21027278;28;20206;-78
2023/08/08 05:25:43;;;;;;;10.33;4.87;;;;;;;13.85;67.19;100231.72;21040161;28;20203;-79
2023/08/08 05:35:45;;;;;;;7.75;4.65;;;;;;;13.97;66.34;100237.38;21012620;28;20622;-79
2023/08/08 05:45:48;;;;;;;7.03;4.43;;;;;;;13.69;67.46;100238.06;20981819;28;20219;-78
2023/08/08 05:55:50;;;;;;;10.18;5.40;;;;;;;14.11;66.40;100249.16;20965612;28;20215;-79
2023/08/08 06:05:53;;;;;;;11.90;6.83;;;;;;;13.39;69.37;100250.75;20934012;28;20207;-79
2023/08/08 06:15:55;;;;;;;12.17;6.80;;;;;;;13.82;68.10;100246.56;20960766;28;20280;-79
2023/08/08 06:25:59;;;;;;;15.37;8.70;;;;;;;13.80;68.52;100257.41;20948033;28;20226;-78
2023/08/08 06:36:03;;;;;;;11.33;8.63;;;;;;;14.79;65.50;100256.94;20947527;28;20227;-79
2023/08/08 06:46:05;;;;;;;12.10;9.90;;;;;;;13.79;67.91;100264.22;20966075;28;20295;-78
2023/08/08 06:56:08;;;;;;;11.57;8.90;;;;;;;14.37;66.49;100263.78;21028199;28;20233;-78
2023/08/08 07:06:10;;;;;;;14.80;9.17;;;;;;;14.80;65.18;100250.09;21022221;28;20218;-79
2023/08/08 07:16:13;;;;;;;18.73;9.63;;;;;;;14.45;66.56;100261.16;21028559;28;20618;-79
2023/08/08 07:26:16;;;;;;;15.95;9.15;;;;;;;13.90;67.32;100257.75;21056904;28;20216;-79
2023/08/08 07:36:18;;;;;;;15.33;9.03;;;;;;;15.59;63.00;100240.59;21059086;28;20684;-79
2023/08/08 07:46:21;;;;;;;14.80;9.23;;;;;;;14.92;63.68;100238.72;21015877;28;20287;-78
2023/08/08 07:56:24;;;;;;;12.13;8.23;;;;;;;15.45;61.59;100235.41;21045852;28;20676;-79
2023/08/08 08:06:27;;;;;;;12.27;7.00;;;;;;;15.19;63.38;100220.91;21056113;28;20495;-78
2023/08/08 08:16:29;;;;;;;8.83;5.47;;;;;;;16.10;59.16;100213.16;21038697;28;20275;-78
2023/08/08 08:26:32;;;;;;;7.90;4.60;;;;;;;15.49;59.36;100211.94;21024338;28;20194;-79
2023/08/08 08:36:34;;;;;;;7.13;3.63;;;;;;;16.69;56.88;100203.53;20942200;28;20215;-78
2023/08/08 08:46:37;;;;;;;6.05;3.20;;;;;;;16.66;56.04;100209.94;20993637;28;20226;-78
2023/08/08 08:56:40;;;;;;;5.97;2.90;;;;;;;16.79;54.39;100207.78;21041084;28;20211;-78
2023/08/08 09:06:43;;;;;;;2.97;2.05;;;;;;;16.24;54.96;100201.25;21051070;28;20475;-78
2023/08/08 09:16:47;;;;;;;4.17;1.90;;;;;;;16.99;52.75;100206.59;21034126;28;20223;-78
2023/08/08 09:26:49;;;;;;;4.25;1.83;;;;;;;17.08;51.20;100197.81;21011444;28;20198;-78
2023/08/08 09:36:53;;;;;;;5.00;1.85;;;;;;;16.18;52.00;100205.59;21034989;28;20222;-78
2023/08/08 09:47:00;;;;;;;3.63;1.48;;;;;;;17.09;48.30;100188.09;21019753;28;20627;-78
2023/08/08 09:57:06;;;;;;;3.00;1.25;;;;;;;16.73;49.86;100192.25;21022077;28;20222;-78
2023/08/08 10:07:09;;;;;;;3.60;1.43;;;;;;;17.98;48.23;100179.13;21033345;28;20214;-78
2023/08/08 10:17:15;;;;;;;8.82;1.52;;;;;;;17.93;47.25;100177.41;21008943;28;20226;-76
2023/08/08 10:27:28;;;;;;;5.32;1.50;;;;;;;16.87;48.82;100192.53;21052892;28;20206;-78
2023/08/08 10:37:30;;;;;;;6.05;1.83;;;;;;;16.24;50.21;100204.09;21052685;28;20215;-78
2023/08/08 10:47:34;;;;;;;6.27;1.50;;;;;;;16.21;49.92;100199.19;21025667;28;20226;-78
2023/08/08 10:57:37;;;;;;;6.60;1.73;;;;;;;16.36;48.80;100198.31;21055577;28;20627;-78
2023/08/08 11:07:41;;;;;;;4.78;1.52;;;;;;;15.73;50.70;100218.25;21010789;28;20565;-78
2023/08/08 11:17:45;;;;;;;3.83;1.50;;;;;;;15.60;53.51;100228.06;21052953;28;20218;-79
2023/08/08 11:27:52;;;;;;;8.32;2.20;;;;;;;17.10;52.50;100212.47;21027571;28;20252;-78
2023/08/08 11:37:56;;;;;;;4.55;1.73;;;;;;;16.81;54.53;100205.38;21018440;28;20214;-79
2023/08/08 11:48:01;;;;;;;3.70;2.00;;;;;;;17.31;52.18;100200.69;21057413;28;20271;-79
2023/08/08 11:58:05;;;;;;;4.57;1.45;;;;;;;16.66;50.69;100209.13;21007451;28;20248;-78
2023/08/08 12:08:08;;;;;;;4.45;1.20;;;;;;;17.39;48.19;100200.47;21019718;28;20222;-78
2023/08/08 12:18:16;;;;;;;2.83;1.38;;;;;;;17.57;46.85;100180.84;21057658;28;20214;-78
2023/08/08 12:28:19;;;;;;;4.45;1.58;;;;;;;18.35;45.62;100169.88;21068805;28;20195;-79
2023/08/08 12:38:21;;;;;;;4.65;1.50;;;;;;;18.17;45.14;100175.34;21056326;28;20659;-79
2023/08/08 12:48:25;;;;;;;3.45;0.65;;;;;;;18.55;43.90;100182.78;21040283;28;20361;-78
2023/08/08 12:58:27;;;;;;;5.15;1.65;;;;;;;17.78;44.68;100164.16;21045172;28;20558;-79
2023/08/08 13:08:32;;;;;;;5.40;1.17;;;;;;;17.89;46.09;100170.84;21042935;28;20678;-78
2023/08/08 13:18:35;;;;;;;3.28;1.17;;;;;;;16.96;49.20;100172.41;21060098;28;20210;-77
2023/08/08 13:28:38;;;;;;;4.88;1.40;;;;;;;18.07;48.85;100181.69;21060840;28;20194;-78
2023/08/08 13:38:41;;;;;;;4.28;1.25;;;;;;;17.39;48.97;100188.28;21037803;28;20251;-79
2023/08/08 13:48:43;;;;;;;3.78;1.50;;;;;;;17.36;48.83;100192.69;21019025;28;20252;-78
2023/08/08 13:58:46;;;;;;;6.38;1.50;;;;;;;17.17;48.31;100181.31;21014971;28;20660;-78
2023/08/08 14:08:49;;;;;;;2.58;0.90;;;;;;;18.06;43.96;100186.56;21015680;28;20214;-78
2023/08/08 14:18:51;;;;;;;3.78;1.05;;;;;;;18.25;43.51;100182.78;21028681;28;20264;-78
2023/08/08 14:28:54;;;;;;;3.35;0.98;;;;;;;18.48;43.26;100186.34;21030584;28;20255;-77
2023/08/08 14:38:56;;;;;;;4.25;1.00;;;;;;;18.61;43.75;100190.63;21029341;28;20239;-78
2023/08/08 14:48:59;;;;;;;5.22;1.38;;;;;;;18.45;42.44;100198.50;21082304;28;20765;-79
2023/08/08 14:59:02;;;;;;;3.13;1.10;;;;;;;18.52;41.72;100204.34;21039497;28;20615;-78
2023/08/08 15:09:06;;;;;;;3.28;1.20;;;;;;;18.53;43.15;100211.69;21018064;28;20317;-77
2023/08/08 15:19:09;;;;;;;2.58;0.77;;;;;;;19.52;39.86;100206.34;21031778;28;20664;-78
2023/08/08 15:29:13;;;;;;;1.30;1.00;;;;;;;18.61;40.33;100213.44;21009036;28;20225;-77
2023/08/08 15:39:20;;;;;;;2.15;0.70;;;;;;;18.78;39.83;100206.34;21029351;28;20264;-77
2023/08/08 15:49:25;;;;;;;2.28;0.50;;;;;;;18.36;39.76;100195.16;21006766;28;20226;-77
2023/08/08 15:59:31;;;;;;;1.10;0.60;;;;;;;18.44;39.03;100191.22;21003788;28;20218;-80
2023/08/08 16:09:34;;;;;;;0.88;0.45;;;;;;;19.34;37.22;100188.25;21079101;28;20252;-78
2023/08/08 16:19:38;;;;;;;3.00;0.47;;;;;;;18.57;37.31;100204.00;21070314;28;20224;-78
2023/08/08 16:29:41;;;;;;;1.90;0.40;;;;;;;18.76;37.43;100196.50;21047906;28;20495;-79
2023/08/08 16:39:44;;;;;;;1.98;0.30;;;;;;;18.22;37.65;100203.47;21016222;28;20190;-79
2023/08/08 16:49:48;;;;;;;1.33;0.40;;;;;;;18.32;37.87;100205.66;20967363;28;20227;-77
2023/08/08 16:59:51;;;;;;;1.88;0.20;;;;;;;18.70;36.74;100200.94;20939957;28;20219;-78
2023/08/08 17:09:53;;;;;;;1.10;0.35;;;;;;;18.35;37.66;100210.59;20947937;28;20218;-77
2023/08/08 17:19:57;;;;;;;0.82;0.40;;;;;;;18.42;37.10;100193.63;20937157;28;20199;-77
2023/08/08 17:29:59;;;;;;;0.60;0.32;;;;;;;17.97;38.89;100200.25;20922187;28;20243;-78
2023/08/08 17:40:03;;;;;;;1.83;0.38;;;;;;;19.12;37.48;100186.34;20938158;28;20199;-79
2023/08/08 17:50:06;;;;;;;0.70;0.25;;;;;;;18.12;41.55;100189.91;20970599;28;20258;-77
2023/08/08 18:00:09;;;;;;;1.30;0.57;;;;;;;18.72;40.04;100172.84;21015746;28;20227;-79
2023/08/08 18:10:17;;;;;;;4.65;0.70;;;;;;;18.48;41.82;100185.53;20997465;28;20556;-78
2023/08/08 18:20:19;;;;;;;3.53;0.77;;;;;;;17.49;46.39;100188.47;21036998;28;20218;-77
2023/08/08 18:30:22;;;;;;;2.92;0.80;;;;;;;17.02;49.85;100205.81;20993105;28;20242;-80
2023/08/08 18:40:25;;;;;;;1.33;1.23;;;;;;;16.79;50.62;100208.59;21015203;28;20511;-79
2023/08/08 18:50:27;;;;;;;3.35;1.10;;;;;;;17.26;48.92;100203.88;21006404;28;20532;-78
2023/08/08 19:00:31;;;;;;;8.25;1.50;;;;;;;16.43;51.50;100194.81;21073442;28;20205;-78
2023/08/08 19:10:33;;;;;;;2.67;1.50;;;;;;;17.04;50.10;100194.88;21016833;28;20249;-78
2023/08/08 19:20:36;;;;;;;3.35;1.25;;;;;;;17.24;49.24;100207.09;21051071;28;20251;-79
2023/08/08 19:30:38;;;;;;;2.40;1.10;;;;;;;16.74;50.87;100222.31;21036935;28;20299;-79
2023/08/08 19:40:41;;;;;;;1.67;1.42;;;;;;;16.36;53.18;100214.53;21051369;28;20276;-78
2023/08/08 19:50:43;;;;;;;2.63;1.73;;;;;;;16.19;56.47;100218.59;20968693;28;20246;-79
2023/08/08 20:00:46;;;;;;;4.40;1.88;;;;;;;15.51;59.80;100199.06;20961427;28;20219;-80
2023/08/08 20:10:49;;;;;;;3.38;1.75;;;;;;;15.25;61.57;100190.25;20950529;28;20242;-78
2023/08/08 20:20:51;;;;;;;5.03;2.57;;;;;;;15.36;61.67;100216.88;20977028;28;20223;-78
2023/08/08 20:30:54;;;;;;;5.85;3.22;;;;;;;14.80;66.26;100202.78;20947816;28;20607;-78
2023/08/08 20:40:57;;;;;;;4.30;3.40;;;;;;;15.41;64.97;100205.28;20966385;28;20593;-78
2023/08/08 20:50:59;;;;;;;5.07;3.92;;;;;;;15.21;66.38;100201.50;21071668;28;20906;-77
2023/08/08 21:01:02;;;;;;;4.83;3.70;;;;;;;15.15;67.12;100207.81;21028370;28;20284;-80
2023/08/08 21:11:05;;;;;;;4.82;4.18;;;;;;;15.40;67.11;100197.97;21006405;28;20272;-84
2023/08/08 21:21:09;;;;;;;6.10;4.70;;;;;;;15.80;66.33;100184.44;20999154;28;20199;-80
2023/08/08 21:31:13;;;;;;;5.03;4.60;;;;;;;15.19;69.52;100174.72;21022778;28;20222;-79
2023/08/08 21:41:43;;;;;;;5.93;5.22;;;;;;;15.38;69.57;100177.66;21033512;28;20247;-87
2023/08/08 21:51:46;;;;;;;5.93;4.93;;;;;;;15.42;69.65;100159.56;21044163;28;20230;-84
2023/08/08 22:01:49;;;;;;;4.50;4.17;;;;;;;15.25;69.66;100133.56;21065239;28;20575;-86
2023/08/08 22:11:53;;;;;;;3.23;2.93;;;;;;;15.79;67.07;100114.69;21047398;28;20222;-81
2023/08/08 22:21:56;;;;;;;3.75;3.10;;;;;;;15.46;68.87;100108.56;21059911;28;20663;-83
2023/08/08 22:32:00;;;;;;;2.33;2.13;;;;;;;14.95;71.07;100114.13;21078413;28;20294;-77
2023/08/08 22:42:05;;;;;;;2.60;2.40;;;;;;;14.76;72.73;100088.53;21080197;28;20210;-79
2023/08/08 22:52:08;;;;;;;1.90;1.40;;;;;;;15.01;71.77;100078.72;21045525;28;20275;-79
2023/08/08 23:02:11;;;;;;;1.30;1.20;;;;;;;14.92;72.88;100071.56;21041088;28;20626;-79
2023/08/08 23:12:14;;;;;;;0.80;0.80;;;;;;;14.72;72.74;100059.28;21040825;28;20292;-80
2023/08/08 23:22:17;;;;;;;1.33;1.23;;;;;;;15.70;68.95;100051.66;21014906;28;20203;-86
2023/08/08 23:32:19;;;;;;;1.85;0.80;;;;;;;15.33;72.11;100058.88;21039519;28;20222;-78
2023/08/08 23:42:22;;;;;;;0.57;0.57;;;;;;;15.19;71.34;100055.69;21066890;28;20209;-80
2023/08/08 23:52:25;;;;;;;0.60;0.50;;;;;;;15.12;70.13;100070.47;20923189;28;20219;-78
